createdAt,value
2023-09-05T00:00:08.236Z,8.40
2023-09-05T00:02:41.515Z,9.48
2023-09-05T00:05:13.996Z,9.65
2023-09-05T00:07:45.035Z,9.60
2023-09-05T00:10:17.057Z,8.45
2023-09-05T00:12:51.903Z,8.75
2023-09-05T00:15:23.164Z,9.52
2023-09-05T00:17:56.066Z,8.80
2023-09-05T00:20:28.092Z,10.02
2023-09-05T00:22:58.383Z,9.63
2023-09-05T00:25:28.751Z,10.50
2023-09-05T00:27:59.003Z,9.68
2023-09-05T00:30:29.300Z,9.15
2023-09-05T00:33:02.171Z,10.18
2023-09-05T00:35:32.505Z,9.35
2023-09-05T00:38:02.746Z,8.77
2023-09-05T00:40:33.385Z,9.13
2023-09-05T00:43:03.708Z,8.90
2023-09-05T00:45:34.922Z,9.65
2023-09-05T00:48:09.808Z,11.10
2023-09-05T00:50:41.744Z,11.50
2023-09-05T00:53:12.229Z,10.52
2023-09-05T00:55:43.579Z,10.75
2023-09-05T00:58:15.039Z,10.60
2023-09-05T01:00:45.360Z,10.38
2023-09-05T01:03:18.285Z,10.45
2023-09-05T01:05:52.113Z,10.60
2023-09-05T01:08:31.623Z,10.45
2023-09-05T01:11:09.971Z,11.23
2023-09-05T01:13:42.845Z,10.40
2023-09-05T01:16:13.408Z,10.82
2023-09-05T01:18:46.446Z,9.90
2023-09-05T01:21:36.712Z,12.05
2023-09-05T01:24:21.066Z,11.77
2023-09-05T01:26:52.733Z,9.98
2023-09-05T01:29:31.362Z,11.10
2023-09-05T01:32:03.210Z,11.23
2023-09-05T01:34:34.135Z,12.57
2023-09-05T01:37:04.505Z,12.68
2023-09-05T01:39:37.502Z,10.73
2023-09-05T01:42:08.627Z,12.93
2023-09-05T01:44:40.298Z,12.90
2023-09-05T01:47:11.048Z,12.40
2023-09-05T01:49:41.352Z,12.60
2023-09-05T01:52:11.726Z,12.27
2023-09-05T01:54:45.523Z,12.70
2023-09-05T01:57:16.021Z,13.40
2023-09-05T01:59:46.340Z,13.68
2023-09-05T02:02:16.821Z,13.57
2023-09-05T02:04:47.392Z,12.15
2023-09-05T02:07:20.317Z,13.95
2023-09-05T02:09:53.176Z,13.30
2023-09-05T02:12:23.497Z,14.00
2023-09-05T02:14:53.817Z,12.70
2023-09-05T02:17:24.738Z,16.08
2023-09-05T02:19:55.005Z,14.27
2023-09-05T02:22:25.382Z,16.08
2023-09-05T02:24:58.304Z,15.45
2023-09-05T02:27:28.585Z,16.13
2023-09-05T02:30:02.797Z,15.05
2023-09-05T02:32:33.368Z,15.07
2023-09-05T02:35:03.682Z,15.32
2023-09-05T02:37:33.982Z,14.00
2023-09-05T02:40:08.709Z,16.15
2023-09-05T02:42:39.147Z,17.15
2023-09-05T02:45:11.011Z,15.57
2023-09-05T02:47:41.488Z,16.45
2023-09-05T02:50:13.205Z,15.25
2023-09-05T02:52:48.069Z,16.98
2023-09-05T02:55:21.576Z,16.50
2023-09-05T02:57:51.945Z,17.92
2023-09-05T03:00:23.690Z,16.77
2023-09-05T03:02:54.142Z,18.17
2023-09-05T03:05:24.465Z,15.63
2023-09-05T03:07:54.820Z,19.45
2023-09-05T03:10:27.767Z,19.20
2023-09-05T03:12:58.221Z,18.77
2023-09-05T03:15:28.698Z,19.58
2023-09-05T03:17:59.037Z,18.67
2023-09-05T03:20:29.715Z,18.50
2023-09-05T03:23:00.097Z,18.20
2023-09-05T03:25:32.980Z,19.55
2023-09-05T03:28:03.300Z,22.02
2023-09-05T03:30:33.791Z,18.60
2023-09-05T03:33:04.198Z,18.65
2023-09-05T03:35:34.511Z,20.70
2023-09-05T03:38:06.756Z,21.25
2023-09-05T03:40:39.923Z,21.42
2023-09-05T03:43:10.494Z,18.17
2023-09-05T03:45:40.856Z,19.50
2023-09-05T03:48:11.292Z,22.15
2023-09-05T03:50:41.595Z,21.77
2023-09-05T03:53:12.075Z,21.30
2023-09-05T03:55:46.417Z,21.63
2023-09-05T03:58:16.856Z,20.43
2023-09-05T04:00:47.199Z,24.15
2023-09-05T04:03:17.853Z,25.67
2023-09-05T04:05:48.159Z,22.40
2023-09-05T04:08:18.506Z,21.95
2023-09-05T04:10:51.389Z,25.52
2023-09-05T04:13:21.661Z,24.80
2023-09-05T04:15:52.252Z,27.95
2023-09-05T04:18:22.681Z,23.45
2023-09-05T04:21:01.993Z,24.80
2023-09-05T04:23:32.410Z,26.65
2023-09-05T04:26:08.302Z,28.10
2023-09-05T04:28:38.690Z,27.08
2023-09-05T04:31:09.504Z,25.33
2023-09-05T04:33:41.913Z,24.65
2023-09-05T04:36:12.906Z,26.30
2023-09-05T04:38:46.447Z,26.00
2023-09-05T04:41:20.762Z,26.55
2023-09-05T04:43:52.302Z,26.88
2023-09-05T04:46:22.643Z,24.90
2023-09-05T04:48:54.809Z,26.13
2023-09-05T04:51:25.097Z,28.67
2023-09-05T04:53:55.393Z,25.17
2023-09-05T04:56:28.455Z,26.30
2023-09-05T04:58:58.740Z,27.00
2023-09-05T05:01:29.004Z,25.00
2023-09-05T05:03:59.470Z,27.23
2023-09-05T05:06:30.435Z,26.17
2023-09-05T05:09:00.695Z,24.50
2023-09-05T05:11:33.599Z,25.58
2023-09-05T05:14:03.957Z,26.23
2023-09-05T05:16:34.285Z,23.95
2023-09-05T05:19:04.861Z,25.80
2023-09-05T05:21:35.326Z,28.08
2023-09-05T05:24:05.614Z,25.40
2023-09-05T05:26:38.540Z,21.90
2023-09-05T05:29:09.070Z,26.98
2023-09-05T05:31:41.470Z,26.35
2023-09-05T05:34:12.293Z,26.55
2023-09-05T05:36:42.621Z,26.88
2023-09-05T05:39:13.041Z,24.70
2023-09-05T05:41:46.021Z,26.40
2023-09-05T05:44:16.373Z,25.73
2023-09-05T05:46:46.789Z,24.27
2023-09-05T05:49:17.292Z,25.63
2023-09-05T05:51:48.025Z,27.42
2023-09-05T05:54:18.656Z,24.52
2023-09-05T05:56:51.565Z,24.73
2023-09-05T05:59:21.884Z,25.45
2023-09-05T06:01:53.979Z,28.15
2023-09-05T06:04:24.754Z,24.48
2023-09-05T06:06:55.193Z,23.40
2023-09-05T06:09:25.612Z,29.02
2023-09-05T06:11:59.698Z,27.08
2023-09-05T06:14:30.336Z,26.23
2023-09-05T06:17:00.654Z,24.67
2023-09-05T06:19:31.527Z,25.48
2023-09-05T06:22:02.032Z,23.33
2023-09-05T06:24:33.456Z,26.83
2023-09-05T06:27:06.548Z,28.15
2023-09-05T06:29:36.958Z,25.92
2023-09-05T06:32:08.510Z,32.13
2023-09-05T06:34:38.900Z,36.03
2023-09-05T06:37:09.395Z,32.03
2023-09-05T06:39:39.724Z,35.95
2023-09-05T06:42:14.148Z,36.50
2023-09-05T06:44:44.652Z,37.20
2023-09-05T06:47:14.946Z,36.28
2023-09-05T06:49:45.515Z,36.15
2023-09-05T06:52:15.810Z,33.13
2023-09-05T06:54:46.465Z,37.58
2023-09-05T06:57:21.396Z,36.35
2023-09-05T06:59:54.468Z,37.80
2023-09-05T07:02:24.981Z,38.15
2023-09-05T07:04:55.410Z,33.50
2023-09-05T07:07:25.773Z,33.17
2023-09-05T07:09:56.193Z,34.38
2023-09-05T07:12:29.144Z,31.45
2023-09-05T07:14:59.526Z,34.75
2023-09-05T07:17:29.819Z,36.13
2023-09-05T07:20:00.187Z,33.38
2023-09-05T07:22:30.481Z,34.03
2023-09-05T07:25:00.868Z,31.63
2023-09-05T07:27:33.784Z,32.92
2023-09-05T07:30:04.122Z,29.50
2023-09-05T07:32:34.642Z,29.73
2023-09-05T07:35:05.509Z,29.77
2023-09-05T07:37:35.825Z,28.42
2023-09-05T07:40:08.282Z,29.40
2023-09-05T07:42:43.316Z,26.77
2023-09-05T07:45:14.839Z,27.35
2023-09-05T07:47:45.809Z,26.77
2023-09-05T07:50:16.272Z,25.65
2023-09-05T07:52:46.621Z,24.20
2023-09-05T07:55:17.090Z,24.10
2023-09-05T07:57:52.323Z,24.15
2023-09-05T08:00:28.208Z,23.23
2023-09-05T08:03:00.258Z,23.67
2023-09-05T08:05:30.611Z,23.63
2023-09-05T08:08:00.960Z,23.38
2023-09-05T08:10:31.607Z,23.23
2023-09-05T08:13:04.625Z,21.85
2023-09-05T08:15:34.975Z,22.92
2023-09-05T08:18:05.439Z,23.73
2023-09-05T08:20:36.677Z,23.73
2023-09-05T08:23:07.266Z,22.58
2023-09-05T08:25:37.586Z,21.27
2023-09-05T08:28:10.696Z,20.60
2023-09-05T08:30:41.047Z,21.35
2023-09-05T08:33:11.512Z,22.80
2023-09-05T08:35:42.901Z,21.83
2023-09-05T08:38:13.302Z,22.10
2023-09-05T08:40:43.816Z,22.02
2023-09-05T08:43:18.441Z,19.38
2023-09-05T08:45:49.660Z,19.85
2023-09-05T08:48:19.932Z,20.15
2023-09-05T08:50:50.641Z,20.25
2023-09-05T08:53:23.565Z,20.40
2023-09-05T08:55:57.404Z,20.27
2023-09-05T08:58:31.933Z,18.75
2023-09-05T09:01:02.329Z,22.17
2023-09-05T09:03:33.180Z,18.23
2023-09-05T09:06:03.524Z,16.70
2023-09-05T09:08:42.678Z,17.92
2023-09-05T09:11:16.249Z,19.50
2023-09-05T09:13:51.960Z,18.92
2023-09-05T09:16:22.973Z,19.30
2023-09-05T09:18:53.769Z,17.98
2023-09-05T09:21:26.915Z,17.48
2023-09-05T09:24:04.949Z,17.70
2023-09-05T09:26:35.308Z,17.83
2023-09-05T09:29:12.026Z,17.20
2023-09-05T09:31:44.847Z,17.40
2023-09-05T09:34:15.362Z,16.70
2023-09-05T09:36:45.664Z,16.83
2023-09-05T09:39:18.710Z,15.63
2023-09-05T09:41:51.443Z,17.05
2023-09-05T09:44:36.517Z,15.63
2023-09-05T09:47:07.636Z,15.43
2023-09-05T09:49:44.338Z,16.35
2023-09-05T09:52:18.720Z,16.00
2023-09-05T09:54:52.429Z,14.90
2023-09-05T09:57:42.567Z,14.20
2023-09-05T10:00:20.257Z,13.52
2023-09-05T10:02:52.043Z,13.02
2023-09-05T10:05:26.081Z,11.77
2023-09-05T10:07:58.183Z,13.57
2023-09-05T10:10:29.154Z,12.25
2023-09-05T10:13:01.003Z,11.48
2023-09-05T10:15:36.580Z,11.25
2023-09-05T10:18:10.657Z,11.55
2023-09-05T10:20:44.596Z,11.18
2023-09-05T10:23:16.161Z,11.82
2023-09-05T10:25:48.272Z,11.13
2023-09-05T10:28:18.617Z,11.02
2023-09-05T10:30:53.471Z,12.15
2023-09-05T10:33:36.877Z,9.93
2023-09-05T10:36:07.810Z,10.15
2023-09-05T10:38:37.782Z,10.23
2023-09-05T10:41:08.180Z,9.48
2023-09-05T10:43:41.058Z,10.60
2023-09-05T10:46:17.269Z,10.05
2023-09-05T10:48:48.079Z,9.45
2023-09-05T10:51:19.362Z,9.05
2023-09-05T10:53:50.599Z,7.78
2023-09-05T10:56:45.852Z,7.15
2023-09-05T10:59:29.685Z,7.10
2023-09-05T11:02:09.984Z,8.05
2023-09-05T11:04:40.805Z,7.25
2023-09-05T11:07:14.999Z,7.70
2023-09-05T11:09:51.497Z,6.70
2023-09-05T11:12:22.827Z,6.65
2023-09-05T11:14:53.464Z,6.10
2023-09-05T11:17:28.604Z,6.55
2023-09-05T11:19:58.946Z,5.63
2023-09-05T11:22:29.239Z,6.85
2023-09-05T11:25:01.107Z,6.47
2023-09-05T11:27:34.108Z,5.70
2023-09-05T11:30:08.268Z,5.63
2023-09-05T11:32:44.004Z,6.78
2023-09-05T11:35:15.445Z,6.72
2023-09-05T11:37:47.029Z,6.07
2023-09-05T11:40:24.197Z,6.68
2023-09-05T11:43:07.525Z,6.32
2023-09-05T11:45:38.780Z,6.03
2023-09-05T11:48:16.014Z,6.43
2023-09-05T11:50:48.479Z,6.38
2023-09-05T11:53:23.801Z,6.72
2023-09-05T11:55:54.794Z,6.13
2023-09-05T11:58:25.441Z,5.85
2023-09-05T12:00:56.357Z,5.93
2023-09-05T12:03:29.388Z,4.82
2023-09-05T12:05:59.771Z,5.50
2023-09-05T12:08:36.720Z,5.05
2023-09-05T12:11:09.282Z,6.20
2023-09-05T12:13:37.947Z,6.05
2023-09-05T12:16:11.132Z,4.90
2023-09-05T12:18:46.702Z,5.78
2023-09-05T12:21:18.559Z,6.40
2023-09-05T12:23:48.866Z,5.93
2023-09-05T12:26:19.237Z,5.22
2023-09-05T12:28:58.489Z,5.50
2023-09-05T12:31:29.749Z,5.82
2023-09-05T12:34:02.692Z,6.45
2023-09-05T12:36:36.346Z,6.18
2023-09-05T12:39:07.962Z,6.68
2023-09-05T12:41:38.305Z,6.65
2023-09-05T12:44:09.672Z,5.30
2023-09-05T12:46:40.047Z,6.15
2023-09-05T12:49:14.045Z,6.70
2023-09-05T12:51:44.328Z,5.53
2023-09-05T12:54:15.141Z,5.93
2023-09-05T12:56:46.246Z,5.43
2023-09-05T12:59:17.450Z,5.60
2023-09-05T13:01:48.000Z,5.50
2023-09-05T13:04:21.142Z,5.55
2023-09-05T13:06:51.488Z,5.32
2023-09-05T13:09:21.761Z,4.80
2023-09-05T13:11:52.483Z,5.07
2023-09-05T13:14:22.846Z,4.95
2023-09-05T13:16:54.308Z,4.80
2023-09-05T13:19:27.256Z,4.40
2023-09-05T13:21:57.556Z,4.00
2023-09-05T13:24:27.833Z,4.10
2023-09-05T13:27:00.288Z,3.70
2023-09-05T13:29:30.795Z,4.00
2023-09-05T13:32:01.252Z,3.80
2023-09-05T13:34:34.152Z,3.45
2023-09-05T13:37:04.804Z,4.20
2023-09-05T13:39:36.387Z,3.63
2023-09-05T13:42:07.683Z,4.07
2023-09-05T13:44:38.964Z,3.47
2023-09-05T13:47:09.500Z,3.53
2023-09-05T13:49:42.403Z,3.42
2023-09-05T13:52:13.723Z,3.35
2023-09-05T13:54:44.044Z,3.15
2023-09-05T13:57:14.584Z,3.83
2023-09-05T13:59:46.353Z,3.47
2023-09-05T14:02:16.701Z,3.10
2023-09-05T14:04:52.344Z,3.75
2023-09-05T14:07:22.807Z,3.60
2023-09-05T14:09:53.120Z,3.33
2023-09-05T14:12:23.459Z,3.00
2023-09-05T14:14:53.875Z,3.10
2023-09-05T14:17:26.286Z,3.40
2023-09-05T14:19:59.441Z,3.17
2023-09-05T14:22:29.852Z,3.30
2023-09-05T14:25:00.130Z,2.92
2023-09-05T14:27:30.479Z,3.30
2023-09-05T14:30:00.855Z,2.80
2023-09-05T14:32:31.152Z,2.80
2023-09-05T14:35:04.101Z,3.13
2023-09-05T14:37:34.454Z,2.92
2023-09-05T14:40:04.849Z,3.20
2023-09-05T14:42:37.872Z,3.00
2023-09-05T14:45:11.346Z,3.00
2023-09-05T14:47:42.538Z,2.88
2023-09-05T14:50:15.706Z,2.95
2023-09-05T14:52:46.048Z,2.72
2023-09-05T14:55:16.748Z,2.80
2023-09-05T14:57:47.649Z,2.70
2023-09-05T15:00:18.789Z,2.90
2023-09-05T15:02:49.170Z,2.50
2023-09-05T15:05:22.403Z,2.67
2023-09-05T15:07:52.834Z,2.88
2023-09-05T15:10:23.183Z,2.70
2023-09-05T15:12:53.688Z,3.08
2023-09-05T15:15:24.039Z,2.67
2023-09-05T15:17:54.974Z,2.95
2023-09-05T15:20:28.170Z,2.60
2023-09-05T15:22:58.587Z,2.83
2023-09-05T15:25:28.837Z,3.20
2023-09-05T15:27:59.159Z,3.22
2023-09-05T15:30:29.519Z,2.58
2023-09-05T15:32:59.884Z,2.50
2023-09-05T15:35:32.830Z,2.67
2023-09-05T15:38:04.091Z,2.60
2023-09-05T15:40:35.498Z,2.20
2023-09-05T15:43:06.236Z,2.50
2023-09-05T15:45:36.679Z,2.67
2023-09-05T15:48:08.411Z,2.35
2023-09-05T15:50:41.888Z,2.28
2023-09-05T15:53:12.270Z,2.72
2023-09-05T15:55:42.572Z,2.80
2023-09-05T15:58:12.951Z,2.70
2023-09-05T16:00:43.462Z,2.47
2023-09-05T16:03:14.065Z,2.70
2023-09-05T16:05:48.676Z,2.72
2023-09-05T16:08:19.231Z,2.40
2023-09-05T16:10:50.647Z,2.28
2023-09-05T16:13:21.171Z,2.50
2023-09-05T16:15:53.816Z,2.45
2023-09-05T16:18:26.079Z,2.40
2023-09-05T16:20:59.594Z,2.60
2023-09-05T16:23:30.057Z,2.60
2023-09-05T16:26:00.371Z,2.70
2023-09-05T16:28:30.933Z,2.60
2023-09-05T16:31:01.729Z,2.70
2023-09-05T16:33:32.579Z,2.40
2023-09-05T16:36:08.519Z,2.35
2023-09-05T16:38:40.684Z,2.60
2023-09-05T16:41:12.217Z,2.40
2023-09-05T16:43:42.546Z,2.80
2023-09-05T16:46:18.736Z,2.45
2023-09-05T16:48:49.977Z,2.47
2023-09-05T16:51:25.807Z,2.60
2023-09-05T16:53:56.247Z,2.70
2023-09-05T16:56:26.537Z,2.35
2023-09-05T16:59:00.517Z,2.80
2023-09-05T17:01:31.555Z,2.63
2023-09-05T17:04:02.069Z,2.55
2023-09-05T17:06:35.271Z,2.50
2023-09-05T17:09:06.140Z,2.67
2023-09-05T17:11:37.362Z,2.58
2023-09-05T17:14:07.859Z,2.40
2023-09-05T17:16:38.187Z,2.42
2023-09-05T17:19:08.588Z,2.30
2023-09-05T17:21:41.566Z,2.47
2023-09-05T17:24:11.971Z,2.70
2023-09-05T17:26:42.287Z,2.55
2023-09-05T17:29:13.798Z,2.53
2023-09-05T17:31:44.834Z,2.47
2023-09-05T17:34:16.335Z,2.40
2023-09-05T17:36:49.315Z,2.67
2023-09-05T17:39:19.959Z,2.35
2023-09-05T17:41:52.001Z,2.78
2023-09-05T17:44:23.460Z,2.60
2023-09-05T17:46:53.807Z,2.40
2023-09-05T17:49:24.290Z,2.90
2023-09-05T17:51:57.195Z,2.53
2023-09-05T17:54:27.563Z,2.95
2023-09-05T17:56:57.991Z,2.58
2023-09-05T17:59:28.635Z,2.70
2023-09-05T18:01:58.991Z,2.45
2023-09-05T18:04:29.479Z,2.75
2023-09-05T18:07:02.598Z,2.85
2023-09-05T18:09:33.009Z,2.58
2023-09-05T18:12:03.828Z,2.60
2023-09-05T18:14:34.176Z,2.33
2023-09-05T18:17:04.474Z,2.58
2023-09-05T18:19:35.523Z,2.70
2023-09-05T18:22:08.683Z,2.53
2023-09-05T18:24:39.079Z,2.60
2023-09-05T18:27:10.072Z,2.72
2023-09-05T18:29:40.444Z,2.30
2023-09-05T18:32:11.145Z,2.65
2023-09-05T18:34:44.316Z,2.30
2023-09-05T18:37:19.099Z,2.28
2023-09-05T18:39:49.458Z,2.35
2023-09-05T18:42:19.811Z,2.60
2023-09-05T18:44:50.539Z,2.40
2023-09-05T18:47:20.979Z,2.60
2023-09-05T18:49:51.288Z,2.38
2023-09-05T18:52:24.147Z,2.28
2023-09-05T18:54:54.506Z,2.50
2023-09-05T18:57:24.887Z,2.30
2023-09-05T18:59:56.049Z,2.60
2023-09-05T19:02:29.526Z,2.70
2023-09-05T19:05:00.410Z,2.53
2023-09-05T19:07:33.272Z,2.30
2023-09-05T19:10:03.873Z,2.70
2023-09-05T19:12:34.205Z,2.85
2023-09-05T19:15:04.538Z,2.28
2023-09-05T19:17:34.947Z,2.40
2023-09-05T19:20:05.697Z,2.72
2023-09-05T19:22:39.643Z,2.65
2023-09-05T19:25:11.479Z,2.50
2023-09-05T19:27:44.951Z,2.65
2023-09-05T19:30:16.467Z,2.60
2023-09-05T19:32:47.054Z,2.83
2023-09-05T19:35:17.397Z,2.35
2023-09-05T19:37:50.311Z,2.35
2023-09-05T19:40:21.252Z,2.70
2023-09-05T19:42:51.948Z,2.85
2023-09-05T19:45:22.595Z,2.47
2023-09-05T19:47:55.442Z,2.60
2023-09-05T19:50:28.879Z,2.97
2023-09-05T19:53:02.080Z,2.70
2023-09-05T19:55:32.404Z,2.60
2023-09-05T19:58:02.748Z,2.70
2023-09-05T20:00:33.563Z,2.90
2023-09-05T20:03:05.865Z,2.28
2023-09-05T20:05:36.282Z,2.97
2023-09-05T20:08:09.972Z,2.47
2023-09-05T20:10:40.334Z,2.63
2023-09-05T20:13:10.620Z,2.70
2023-09-05T20:15:40.984Z,2.67
2023-09-05T20:18:11.439Z,2.72
2023-09-05T20:20:41.774Z,2.80
2023-09-05T20:23:14.681Z,2.75
2023-09-05T20:25:46.032Z,2.85
2023-09-05T20:28:16.321Z,2.90
2023-09-05T20:30:46.845Z,2.70
2023-09-05T20:33:17.294Z,2.60
2023-09-05T20:35:47.651Z,2.80
2023-09-05T20:38:21.276Z,2.50
2023-09-05T20:40:52.030Z,2.60
2023-09-05T20:43:22.968Z,3.00
2023-09-05T20:45:53.304Z,2.80
2023-09-05T20:48:23.951Z,2.83
2023-09-05T20:50:54.908Z,3.08
2023-09-05T20:53:27.980Z,3.00
2023-09-05T20:55:58.768Z,3.08
2023-09-05T20:58:30.132Z,3.20
2023-09-05T21:01:02.592Z,2.80
2023-09-05T21:03:33.183Z,2.72
2023-09-05T21:06:03.856Z,3.25
2023-09-05T21:08:36.717Z,3.38
2023-09-05T21:11:07.028Z,2.97
2023-09-05T21:13:37.335Z,3.30
2023-09-05T21:16:09.779Z,2.90
2023-09-05T21:18:40.790Z,3.15
2023-09-05T21:21:12.651Z,3.67
2023-09-05T21:23:45.591Z,3.15
2023-09-05T21:26:15.887Z,3.15
2023-09-05T21:28:46.431Z,3.13
2023-09-05T21:31:18.051Z,3.42
2023-09-05T21:33:48.746Z,3.33
2023-09-05T21:36:19.103Z,3.30
2023-09-05T21:38:51.993Z,3.55
2023-09-05T21:41:22.693Z,3.00
2023-09-05T21:43:52.961Z,3.60
2023-09-05T21:46:23.314Z,3.10
2023-09-05T21:48:53.646Z,3.50
2023-09-05T21:51:24.092Z,3.63
2023-09-05T21:53:57.056Z,2.92
2023-09-05T21:56:27.326Z,3.50
2023-09-05T21:58:57.590Z,3.50
2023-09-05T22:01:27.917Z,3.42
2023-09-05T22:03:58.531Z,3.40
2023-09-05T22:06:29.189Z,3.20
2023-09-05T22:09:02.197Z,3.00
2023-09-05T22:11:32.701Z,3.60
2023-09-05T22:14:03.041Z,3.60
2023-09-05T22:16:33.412Z,3.30
2023-09-05T22:19:25.340Z,4.05
2023-09-05T22:21:57.288Z,4.00
2023-09-05T22:24:31.221Z,3.38
2023-09-05T22:27:04.868Z,3.65
2023-09-05T22:29:36.736Z,4.00
2023-09-05T22:32:07.979Z,3.50
2023-09-05T22:34:39.201Z,4.10
2023-09-05T22:37:11.170Z,3.75
2023-09-05T22:39:44.533Z,4.40
2023-09-05T22:42:14.896Z,3.97
2023-09-05T22:44:45.203Z,9.38
2023-09-05T22:47:15.829Z,14.32
2023-09-05T22:49:47.063Z,8.68
2023-09-05T22:52:18.429Z,5.18
2023-09-05T22:54:51.317Z,5.22
2023-09-05T22:57:21.648Z,4.55
2023-09-05T22:59:52.069Z,5.10
2023-09-05T23:02:22.888Z,4.40
2023-09-05T23:04:53.195Z,4.22
2023-09-05T23:07:24.230Z,4.60
2023-09-05T23:09:57.112Z,4.93
2023-09-05T23:12:27.829Z,5.57
2023-09-05T23:14:58.164Z,5.18
2023-09-05T23:17:28.578Z,4.50
2023-09-05T23:20:00.235Z,4.90
2023-09-05T23:22:30.666Z,4.82
2023-09-05T23:25:04.043Z,5.32
2023-09-05T23:27:35.712Z,5.47
2023-09-05T23:30:06.466Z,5.90
2023-09-05T23:32:38.575Z,5.47
2023-09-05T23:35:10.567Z,5.10
2023-09-05T23:37:40.914Z,6.72
2023-09-05T23:40:18.101Z,5.85
2023-09-05T23:42:48.460Z,6.57
2023-09-05T23:45:19.118Z,5.90
2023-09-05T23:47:50.565Z,6.95
2023-09-05T23:50:24.051Z,7.20
2023-09-05T23:52:54.428Z,5.55
2023-09-05T23:55:27.927Z,6.32
2023-09-05T23:58:00.517Z,6.68
